createdAt,value
2022-08-16T00:02:30.777Z,13.50
2022-08-16T00:04:59.744Z,13.40
2022-08-16T00:07:29.089Z,13.40
2022-08-16T00:10:00.026Z,13.40
2022-08-16T00:12:28.827Z,13.30
2022-08-16T00:14:57.756Z,13.30
2022-08-16T00:17:26.711Z,13.30
2022-08-16T00:19:56.378Z,13.30
2022-08-16T00:22:27.862Z,13.30
2022-08-16T00:24:56.076Z,13.30
2022-08-16T00:27:23.692Z,13.30
2022-08-16T00:30:00.639Z,13.30
2022-08-16T00:32:38.477Z,13.20
2022-08-16T00:35:15.594Z,13.20
2022-08-16T00:37:57.311Z,13.10
2022-08-16T00:40:36.683Z,13.10
2022-08-16T00:43:12.103Z,13.10
2022-08-16T00:46:00.291Z,13.00
2022-08-16T00:48:31.615Z,13.00
2022-08-16T00:51:02.483Z,13.00
2022-08-16T00:53:30.901Z,12.90
2022-08-16T00:56:01.085Z,12.90
2022-08-16T00:58:35.339Z,12.90
2022-08-16T01:01:08.147Z,12.90
2022-08-16T01:03:41.663Z,12.90
2022-08-16T01:06:40.459Z,12.90
2022-08-16T01:09:00.162Z,12.90
2022-08-16T01:11:28.006Z,12.90
2022-08-16T01:14:05.203Z,12.90
2022-08-16T01:16:32.522Z,12.90
2022-08-16T01:19:17.028Z,12.90
2022-08-16T01:21:53.721Z,12.90
2022-08-16T01:24:52.687Z,12.90
2022-08-16T01:27:48.484Z,12.90
2022-08-16T01:30:26.427Z,12.80
2022-08-16T01:33:01.825Z,12.70
2022-08-16T01:36:00.499Z,12.70
2022-08-16T01:38:36.299Z,12.80
2022-08-16T01:41:06.655Z,12.70
2022-08-16T01:43:35.395Z,12.70
2022-08-16T01:46:30.044Z,12.60
2022-08-16T01:48:56.251Z,12.50
2022-08-16T01:51:25.530Z,12.60
2022-08-16T01:53:55.231Z,12.60
2022-08-16T01:56:25.449Z,12.70
2022-08-16T01:58:57.186Z,12.60
2022-08-16T02:01:26.210Z,12.50
2022-08-16T02:03:58.237Z,12.50
2022-08-16T02:06:34.631Z,12.50
2022-08-16T02:09:05.286Z,12.50
2022-08-16T02:11:47.634Z,12.40
2022-08-16T02:14:22.438Z,12.50
2022-08-16T02:16:53.863Z,12.40
2022-08-16T02:19:21.237Z,12.40
2022-08-16T02:22:09.323Z,12.30
2022-08-16T02:24:42.217Z,12.30
2022-08-16T02:27:13.172Z,12.30
2022-08-16T02:29:41.507Z,12.30
2022-08-16T02:32:50.598Z,12.20
2022-08-16T02:34:58.346Z,12.20
2022-08-16T02:37:51.637Z,12.20
2022-08-16T02:40:13.376Z,12.20
2022-08-16T02:42:49.607Z,12.20
2022-08-16T02:45:19.350Z,12.20
2022-08-16T02:48:00.165Z,12.20
2022-08-16T02:50:54.190Z,12.20
2022-08-16T02:53:18.169Z,12.20
2022-08-16T02:55:45.224Z,12.20
2022-08-16T02:58:17.897Z,12.10
2022-08-16T03:00:45.552Z,12.10
2022-08-16T03:03:17.946Z,12.00
2022-08-16T03:05:49.999Z,12.00
2022-08-16T03:08:49.796Z,12.00
2022-08-16T03:11:16.609Z,11.90
2022-08-16T03:13:53.275Z,11.90
2022-08-16T03:16:32.776Z,11.90
2022-08-16T03:19:06.825Z,11.90
2022-08-16T03:21:38.203Z,11.90
2022-08-16T03:24:29.376Z,11.90
2022-08-16T03:26:58.095Z,11.80
2022-08-16T03:29:30.074Z,11.80
2022-08-16T03:31:59.318Z,11.70
2022-08-16T03:34:27.372Z,11.70
2022-08-16T03:36:55.283Z,11.70
2022-08-16T03:39:22.642Z,11.80
2022-08-16T03:41:51.292Z,11.70
2022-08-16T03:44:44.734Z,11.70
2022-08-16T03:47:18.518Z,11.70
2022-08-16T03:49:51.290Z,11.70
2022-08-16T03:52:20.435Z,11.60
2022-08-16T03:54:52.966Z,11.60
2022-08-16T03:57:20.818Z,11.60
2022-08-16T03:59:47.967Z,11.60
2022-08-16T04:02:22.762Z,11.60
2022-08-16T04:04:58.155Z,11.60
2022-08-16T04:07:25.683Z,11.50
2022-08-16T04:09:52.484Z,11.40
2022-08-16T04:12:54.565Z,11.40
2022-08-16T04:15:10.503Z,11.50
2022-08-16T04:17:42.017Z,11.50
2022-08-16T04:20:23.612Z,11.40
2022-08-16T04:22:58.608Z,11.40
2022-08-16T04:25:26.066Z,11.40
2022-08-16T04:27:54.330Z,11.40
2022-08-16T04:30:31.855Z,11.40
2022-08-16T04:33:00.330Z,11.40
2022-08-16T04:35:27.289Z,11.40
2022-08-16T04:38:01.257Z,11.40
2022-08-16T04:40:38.480Z,11.40
2022-08-16T04:43:05.817Z,11.40
2022-08-16T04:45:36.245Z,11.40
2022-08-16T04:48:04.800Z,11.40
2022-08-16T04:50:31.636Z,11.40
2022-08-16T04:52:59.263Z,11.40
2022-08-16T04:55:31.768Z,11.40
2022-08-16T04:58:45.964Z,11.40
2022-08-16T05:00:53.556Z,11.50
2022-08-16T05:03:21.454Z,11.50
2022-08-16T05:05:59.355Z,11.60
2022-08-16T05:08:30.963Z,11.60
2022-08-16T05:11:05.731Z,11.60
2022-08-16T05:13:40.898Z,11.60
2022-08-16T05:16:30.361Z,11.60
2022-08-16T05:18:59.643Z,11.60
2022-08-16T05:21:38.150Z,11.60
2022-08-16T05:24:07.055Z,11.70
2022-08-16T05:26:37.414Z,11.70
2022-08-16T05:29:11.025Z,11.80
2022-08-16T05:31:47.985Z,11.90
2022-08-16T05:34:19.799Z,11.90
2022-08-16T05:36:51.483Z,11.90
2022-08-16T05:39:20.636Z,12.00
2022-08-16T05:41:51.633Z,12.10
2022-08-16T05:44:23.828Z,12.30
2022-08-16T05:47:00.547Z,12.40
2022-08-16T05:49:38.273Z,12.50
2022-08-16T05:52:11.147Z,12.70
2022-08-16T05:54:47.789Z,12.90
2022-08-16T05:57:25.577Z,13.10
2022-08-16T06:00:05.641Z,13.30
2022-08-16T06:02:36.185Z,13.40
2022-08-16T06:05:04.559Z,13.40
2022-08-16T06:07:32.094Z,13.50
2022-08-16T06:10:00.218Z,13.50
2022-08-16T06:12:29.329Z,13.50
2022-08-16T06:15:09.921Z,13.50
2022-08-16T06:17:43.900Z,13.50
2022-08-16T06:20:23.398Z,13.50
2022-08-16T06:22:57.751Z,13.60
2022-08-16T06:25:36.027Z,13.80
2022-08-16T06:28:16.699Z,14.00
2022-08-16T06:30:57.492Z,14.20
2022-08-16T06:33:24.338Z,14.40
2022-08-16T06:35:55.292Z,14.70
2022-08-16T06:38:33.441Z,15.00
2022-08-16T06:41:06.328Z,15.20
2022-08-16T06:43:40.636Z,15.50
2022-08-16T06:46:10.642Z,15.70
2022-08-16T06:48:42.877Z,15.90
2022-08-16T06:51:10.810Z,16.30
2022-08-16T06:53:38.074Z,16.40
2022-08-16T06:56:14.661Z,16.60
2022-08-16T06:58:51.364Z,17.00
2022-08-16T07:01:22.937Z,17.30
2022-08-16T07:04:11.866Z,17.50
2022-08-16T07:06:40.573Z,17.80
2022-08-16T07:09:11.437Z,18.00
2022-08-16T07:11:46.149Z,18.30
2022-08-16T07:14:24.714Z,18.60
2022-08-16T07:16:54.918Z,19.00
2022-08-16T07:19:21.762Z,19.20
2022-08-16T07:22:38.731Z,19.40
2022-08-16T07:24:55.669Z,19.80
2022-08-16T07:27:23.197Z,19.90
2022-08-16T07:29:55.515Z,20.10
2022-08-16T07:32:29.701Z,20.60
2022-08-16T07:34:58.715Z,20.80
2022-08-16T07:37:25.619Z,20.80
2022-08-16T07:39:54.587Z,21.10
2022-08-16T07:42:28.169Z,21.20
2022-08-16T07:45:01.626Z,21.10
2022-08-16T07:47:31.932Z,21.60
2022-08-16T07:50:00.044Z,22.00
2022-08-16T07:52:32.804Z,22.20
2022-08-16T07:55:00.167Z,22.40
2022-08-16T07:57:27.228Z,22.80
2022-08-16T07:59:57.259Z,23.10
2022-08-16T08:02:27.292Z,23.30
2022-08-16T08:04:55.889Z,22.90
2022-08-16T08:07:27.526Z,23.40
2022-08-16T08:09:55.936Z,23.60
2022-08-16T08:12:32.554Z,23.20
2022-08-16T08:15:05.932Z,23.60
2022-08-16T08:17:43.098Z,23.80
2022-08-16T08:20:28.407Z,23.10
2022-08-16T08:23:01.035Z,23.50
2022-08-16T08:25:55.316Z,23.70
2022-08-16T08:28:17.817Z,23.50
2022-08-16T08:30:51.833Z,24.00
2022-08-16T08:33:29.221Z,24.40
2022-08-16T08:36:01.055Z,24.50
2022-08-16T08:38:43.715Z,25.00
2022-08-16T08:41:12.858Z,24.80
2022-08-16T08:43:41.505Z,24.70
2022-08-16T08:46:17.934Z,25.20
2022-08-16T08:48:46.412Z,24.80
2022-08-16T08:51:31.962Z,25.50
2022-08-16T08:54:06.558Z,25.70
2022-08-16T08:56:35.056Z,25.30
2022-08-16T08:59:12.731Z,25.70
2022-08-16T09:01:43.053Z,26.30
2022-08-16T09:04:23.863Z,26.00
2022-08-16T09:06:50.816Z,26.40
2022-08-16T09:09:17.632Z,26.80
2022-08-16T09:11:52.707Z,27.50
2022-08-16T09:14:33.052Z,27.20
2022-08-16T09:17:02.954Z,27.40
2022-08-16T09:19:37.139Z,26.60
2022-08-16T09:22:07.836Z,25.30
2022-08-16T09:24:53.407Z,24.90
2022-08-16T09:27:23.318Z,24.70
2022-08-16T09:30:00.281Z,24.70
2022-08-16T09:32:31.165Z,24.50
2022-08-16T09:35:01.509Z,24.40
2022-08-16T09:37:30.567Z,24.20
2022-08-16T09:40:33.038Z,23.90
2022-08-16T09:42:56.620Z,23.70
2022-08-16T09:45:28.911Z,23.80
2022-08-16T09:47:58.238Z,24.10
2022-08-16T09:50:37.075Z,24.20
2022-08-16T09:53:17.240Z,24.20
2022-08-16T09:55:49.306Z,24.30
2022-08-16T09:58:40.456Z,24.30
2022-08-16T10:01:05.743Z,24.70
2022-08-16T10:03:35.601Z,26.20
2022-08-16T10:06:02.614Z,27.30
2022-08-16T10:08:29.500Z,28.00
2022-08-16T10:11:14.889Z,28.00
2022-08-16T10:13:50.907Z,28.70
2022-08-16T10:16:17.781Z,28.20
2022-08-16T10:19:06.205Z,28.10
2022-08-16T10:21:34.116Z,28.00
2022-08-16T10:24:02.212Z,28.20
2022-08-16T10:27:17.538Z,28.00
2022-08-16T10:29:19.908Z,28.30
2022-08-16T10:31:53.724Z,28.80
2022-08-16T10:34:32.494Z,28.80
2022-08-16T10:37:00.662Z,28.50
2022-08-16T10:39:40.647Z,29.50
2022-08-16T10:42:10.138Z,29.60
2022-08-16T10:44:40.734Z,29.80
2022-08-16T10:47:10.013Z,29.20
2022-08-16T10:49:39.122Z,29.00
2022-08-16T10:52:18.959Z,29.50
2022-08-16T10:57:35.000Z,30.00
2022-08-16T11:00:06.746Z,30.50
2022-08-16T11:02:59.078Z,30.60
2022-08-16T11:08:35.502Z,28.90
2022-08-16T11:11:12.792Z,28.30
2022-08-16T11:14:10.717Z,28.20
2022-08-16T11:19:20.433Z,26.80
2022-08-16T11:24:42.310Z,26.80
2022-08-16T11:27:35.478Z,27.10
2022-08-16T11:30:05.048Z,26.40
2022-08-16T11:32:36.348Z,26.20
2022-08-16T11:35:10.566Z,26.30
2022-08-16T11:40:44.357Z,26.10
2022-08-16T11:43:13.039Z,26.30
2022-08-16T11:45:44.346Z,26.20
2022-08-16T11:48:21.807Z,26.10
2022-08-16T11:50:48.619Z,26.20
2022-08-16T11:53:17.087Z,26.30
2022-08-16T11:55:44.713Z,26.30
2022-08-16T11:58:11.774Z,26.20
2022-08-16T12:00:51.088Z,26.30
2022-08-16T12:03:25.046Z,26.10
2022-08-16T12:06:02.303Z,26.30
2022-08-16T12:08:30.385Z,26.90
2022-08-16T12:10:59.426Z,27.30
2022-08-16T12:13:29.776Z,27.20
2022-08-16T12:15:56.604Z,27.20
2022-08-16T12:18:24.595Z,28.00
2022-08-16T12:20:51.657Z,29.30
2022-08-16T12:23:22.157Z,29.40
2022-08-16T12:25:49.510Z,28.90
2022-08-16T12:28:36.746Z,28.50
2022-08-16T12:31:05.541Z,28.40
2022-08-16T12:33:32.824Z,28.20
2022-08-16T12:36:13.196Z,28.20
2022-08-16T12:38:48.048Z,28.30
2022-08-16T12:41:24.306Z,28.00
2022-08-16T12:43:52.262Z,27.80
2022-08-16T12:46:19.141Z,27.30
2022-08-16T12:48:58.273Z,27.00
2022-08-16T12:51:30.589Z,27.80
2022-08-16T12:54:14.929Z,28.40
2022-08-16T12:56:42.718Z,28.20
2022-08-16T12:59:16.820Z,28.10
2022-08-16T13:01:47.772Z,28.90
2022-08-16T13:04:20.381Z,28.40
2022-08-16T13:06:50.076Z,28.50
2022-08-16T13:09:26.797Z,28.80
2022-08-16T13:12:03.501Z,28.80
2022-08-16T13:14:35.358Z,29.20
2022-08-16T13:17:07.728Z,29.50
2022-08-16T13:20:05.482Z,29.90
2022-08-16T13:22:23.457Z,30.00
2022-08-16T13:24:52.215Z,29.70
2022-08-16T13:27:19.036Z,28.60
2022-08-16T13:29:50.098Z,29.10
2022-08-16T13:32:40.226Z,29.80
2022-08-16T13:35:11.825Z,30.40
2022-08-16T13:37:39.547Z,30.90
2022-08-16T13:40:09.970Z,31.30
2022-08-16T13:42:47.491Z,31.70
2022-08-16T13:45:16.506Z,31.80
2022-08-16T13:47:43.930Z,31.80
2022-08-16T13:50:11.643Z,32.30
2022-08-16T13:52:39.853Z,30.80
2022-08-16T13:55:17.934Z,30.50
2022-08-16T13:58:35.231Z,31.10
2022-08-16T14:00:32.160Z,31.40
2022-08-16T14:02:59.469Z,31.70
2022-08-16T14:05:26.908Z,32.30
2022-08-16T14:07:54.059Z,32.10
2022-08-16T14:10:21.217Z,31.20
2022-08-16T14:12:48.266Z,30.80
2022-08-16T14:15:16.083Z,30.10
2022-08-16T14:18:20.071Z,30.60
2022-08-16T14:20:30.032Z,30.50
2022-08-16T14:22:56.985Z,30.40
2022-08-16T14:25:24.804Z,29.70
2022-08-16T14:27:54.336Z,29.80
2022-08-16T14:30:22.581Z,30.00
2022-08-16T14:32:51.766Z,30.30
2022-08-16T14:35:29.382Z,30.00
2022-08-16T14:38:04.888Z,30.10
2022-08-16T14:40:32.417Z,30.50
2022-08-16T14:43:07.046Z,30.50
2022-08-16T14:45:34.674Z,30.60
2022-08-16T14:48:01.480Z,30.20
2022-08-16T14:50:28.353Z,30.20
2022-08-16T14:52:59.177Z,30.20
2022-08-16T14:55:28.450Z,30.40
2022-08-16T14:57:55.866Z,30.30
2022-08-16T15:00:33.155Z,30.20
2022-08-16T15:03:09.937Z,30.30
2022-08-16T15:05:38.565Z,30.20
2022-08-16T15:08:05.827Z,29.80
2022-08-16T15:10:33.090Z,29.60
2022-08-16T15:13:01.205Z,29.40
2022-08-16T15:15:30.255Z,29.60
2022-08-16T15:17:57.566Z,29.60
2022-08-16T15:20:30.465Z,29.50
2022-08-16T15:22:59.765Z,29.30
2022-08-16T15:25:36.677Z,28.90
2022-08-16T15:28:23.387Z,28.90
2022-08-16T15:31:00.250Z,28.90
2022-08-16T15:33:27.953Z,28.30
2022-08-16T15:35:58.195Z,28.00
2022-08-16T15:38:57.785Z,28.30
2022-08-16T15:41:33.398Z,28.30
2022-08-16T15:44:05.622Z,28.50
2022-08-16T15:46:55.836Z,28.20
2022-08-16T15:49:37.591Z,27.70
2022-08-16T15:52:20.508Z,27.80
2022-08-16T15:54:53.546Z,27.90
2022-08-16T15:57:26.673Z,27.70
2022-08-16T15:59:55.928Z,27.70
2022-08-16T16:02:31.150Z,27.80
2022-08-16T16:05:06.669Z,27.60
2022-08-16T16:07:34.037Z,27.50
2022-08-16T16:10:08.022Z,27.50
2022-08-16T16:12:51.018Z,27.30
2022-08-16T16:15:24.532Z,27.10
2022-08-16T16:17:52.844Z,27.00
2022-08-16T16:20:22.050Z,26.90
2022-08-16T16:22:51.831Z,26.90
2022-08-16T16:25:19.413Z,26.90
2022-08-16T16:27:47.739Z,26.70
2022-08-16T16:30:38.222Z,26.70
2022-08-16T16:33:11.510Z,26.40
2022-08-16T16:35:46.932Z,26.20
2022-08-16T16:38:15.717Z,26.20
2022-08-16T16:40:54.351Z,26.20
2022-08-16T16:43:25.901Z,26.30
2022-08-16T16:45:59.845Z,26.30
2022-08-16T16:48:29.588Z,26.20
2022-08-16T16:50:58.007Z,26.20
2022-08-16T16:53:31.654Z,26.20
2022-08-16T16:56:08.797Z,26.10
2022-08-16T16:58:55.538Z,26.00
2022-08-16T17:01:41.215Z,26.00
2022-08-16T17:04:19.544Z,25.90
2022-08-16T17:06:53.474Z,25.90
2022-08-16T17:09:23.757Z,25.80
2022-08-16T17:11:54.987Z,25.70
2022-08-16T17:14:32.178Z,25.50
2022-08-16T17:17:07.011Z,25.50
2022-08-16T17:19:40.301Z,25.40
2022-08-16T17:22:14.033Z,25.40
2022-08-16T17:24:44.894Z,25.30
2022-08-16T17:27:17.667Z,25.20
2022-08-16T17:29:51.442Z,25.10
2022-08-16T17:32:33.791Z,25.00
2022-08-16T17:35:12.264Z,24.80
2022-08-16T17:37:51.556Z,24.70
2022-08-16T17:40:47.010Z,24.70
2022-08-16T17:43:15.238Z,24.60
2022-08-16T17:45:43.055Z,24.50
2022-08-16T17:48:10.303Z,24.40
2022-08-16T17:50:38.034Z,24.20
2022-08-16T17:53:06.119Z,24.10
2022-08-16T17:55:37.410Z,24.00
2022-08-16T17:58:22.190Z,24.00
2022-08-16T18:00:53.108Z,23.90
2022-08-16T18:04:02.759Z,23.70
2022-08-16T18:06:13.086Z,23.60
2022-08-16T18:08:40.758Z,23.40
2022-08-16T18:11:10.300Z,23.30
2022-08-16T18:13:43.100Z,23.20
2022-08-16T18:16:11.192Z,23.10
2022-08-16T18:18:38.037Z,22.90
2022-08-16T18:21:23.373Z,22.80
2022-08-16T18:23:50.214Z,22.70
2022-08-16T18:26:17.272Z,22.60
2022-08-16T18:28:44.160Z,22.50
2022-08-16T18:31:11.058Z,22.30
2022-08-16T18:33:43.614Z,22.20
2022-08-16T18:36:21.227Z,21.90
2022-08-16T18:38:49.460Z,21.80
2022-08-16T18:41:16.443Z,21.80
2022-08-16T18:44:24.216Z,21.70
2022-08-16T18:46:29.995Z,21.50
2022-08-16T18:48:56.984Z,21.40
2022-08-16T18:51:25.436Z,21.20
2022-08-16T18:53:52.841Z,21.10
2022-08-16T18:56:19.721Z,21.00
2022-08-16T18:58:46.644Z,20.90
2022-08-16T19:01:13.542Z,20.80
2022-08-16T19:03:40.613Z,20.70
2022-08-16T19:06:13.732Z,20.60
2022-08-16T19:08:43.719Z,20.40
2022-08-16T19:11:18.917Z,20.30
2022-08-16T19:13:46.251Z,20.30
2022-08-16T19:16:14.253Z,20.20
2022-08-16T19:18:41.773Z,20.10
2022-08-16T19:21:11.466Z,20.00
2022-08-16T19:23:43.419Z,19.90
2022-08-16T19:26:24.771Z,19.80
2022-08-16T19:28:59.089Z,19.60
2022-08-16T19:31:35.307Z,19.50
2022-08-16T19:34:04.396Z,19.40
2022-08-16T19:36:36.150Z,19.30
2022-08-16T19:39:10.563Z,19.30
2022-08-16T19:41:41.068Z,19.20
2022-08-16T19:44:09.020Z,19.10
2022-08-16T19:46:36.330Z,19.00
2022-08-16T19:49:05.064Z,18.90
2022-08-16T19:51:32.335Z,18.70
2022-08-16T19:53:59.205Z,18.70
2022-08-16T19:56:26.713Z,18.70
2022-08-16T20:01:43.074Z,18.50
2022-08-16T20:04:13.396Z,18.50
2022-08-16T20:06:41.661Z,18.50
2022-08-16T20:09:10.318Z,18.50
2022-08-16T20:11:41.621Z,18.40
2022-08-16T20:14:08.445Z,18.30
2022-08-16T20:16:35.775Z,18.20
2022-08-16T20:19:04.312Z,18.20
2022-08-16T20:21:31.166Z,18.10
2022-08-16T20:24:22.704Z,18.00
2022-08-16T20:26:45.351Z,18.00
2022-08-16T20:29:12.170Z,17.90
2022-08-16T20:31:39.254Z,17.90
2022-08-16T20:34:06.154Z,17.80
2022-08-16T20:36:33.015Z,17.80
2022-08-16T20:39:00.264Z,17.70
2022-08-16T20:41:27.560Z,17.50
2022-08-16T20:43:55.162Z,17.50
2022-08-16T20:46:23.065Z,17.40
2022-08-16T20:48:49.961Z,17.30
2022-08-16T20:51:16.861Z,17.20
2022-08-16T20:53:44.366Z,17.20
2022-08-16T20:56:12.082Z,17.10
2022-08-16T20:58:39.143Z,17.10
2022-08-16T21:01:07.952Z,17.00
2022-08-16T21:03:35.515Z,17.00
2022-08-16T21:06:02.764Z,16.90
2022-08-16T21:08:52.240Z,16.80
2022-08-16T21:11:17.309Z,16.80
2022-08-16T21:13:44.205Z,16.70
2022-08-16T21:16:11.013Z,16.60
2022-08-16T21:18:38.667Z,16.60
2022-08-16T21:21:05.501Z,16.50
2022-08-16T21:23:32.443Z,16.40
2022-08-16T21:25:59.890Z,16.40
2022-08-16T21:28:41.682Z,16.40
2022-08-16T21:31:11.763Z,16.30
2022-08-16T21:33:39.085Z,16.30
2022-08-16T21:36:06.292Z,16.30
2022-08-16T21:38:33.152Z,16.20
2022-08-16T21:41:00.632Z,16.10
2022-08-16T21:43:31.742Z,16.10
2022-08-16T21:45:59.505Z,16.00
2022-08-16T21:48:34.752Z,15.90
2022-08-16T21:51:08.199Z,15.80
2022-08-16T21:53:36.427Z,15.90
2022-08-16T21:56:06.855Z,15.90
2022-08-16T21:58:36.731Z,15.80
2022-08-16T22:01:04.539Z,15.80
2022-08-16T22:03:33.094Z,15.70
2022-08-16T22:06:12.408Z,15.60
2022-08-16T22:08:46.806Z,15.60
2022-08-16T22:11:17.923Z,15.60
2022-08-16T22:13:57.351Z,15.50
2022-08-16T22:16:31.468Z,15.50
2022-08-16T22:18:58.835Z,15.40
2022-08-16T22:21:26.016Z,15.40
2022-08-16T22:23:57.024Z,15.50
2022-08-16T22:26:30.193Z,15.50
2022-08-16T22:28:59.328Z,15.40
2022-08-16T22:31:26.156Z,15.40
2022-08-16T22:33:52.940Z,15.30
2022-08-16T22:36:19.962Z,15.30
2022-08-16T22:38:55.674Z,15.20
2022-08-16T22:41:24.538Z,15.10
2022-08-16T22:43:51.766Z,15.00
2022-08-16T22:46:19.578Z,15.00
2022-08-16T22:48:49.994Z,15.00
2022-08-16T22:51:18.339Z,15.00
2022-08-16T22:53:45.189Z,15.00
2022-08-16T22:56:12.509Z,14.90
2022-08-16T22:58:39.730Z,14.90
2022-08-16T23:01:09.066Z,14.90
2022-08-16T23:03:36.813Z,14.90
2022-08-16T23:06:05.798Z,14.80
2022-08-16T23:08:39.414Z,14.70
2022-08-16T23:11:13.481Z,14.70
2022-08-16T23:13:52.750Z,14.70
2022-08-16T23:16:33.810Z,14.60
2022-08-16T23:19:07.037Z,14.50
2022-08-16T23:21:37.064Z,14.50
2022-08-16T23:24:04.615Z,14.50
2022-08-16T23:26:45.209Z,14.50
2022-08-16T23:29:23.535Z,14.50
2022-08-16T23:31:55.771Z,14.40
2022-08-16T23:34:23.371Z,14.40
2022-08-16T23:36:50.196Z,14.40
2022-08-16T23:39:17.011Z,14.30
2022-08-16T23:41:44.474Z,14.30
2022-08-16T23:44:44.174Z,14.30
2022-08-16T23:46:58.028Z,14.20
2022-08-16T23:49:58.240Z,14.20
2022-08-16T23:52:11.907Z,14.10
2022-08-16T23:54:38.686Z,14.10
2022-08-16T23:57:05.509Z,14.00
2022-08-16T23:59:45.855Z,14.00
